sensor_id;sensor_type;location;lat;lon;timestamp;P1;durP1;ratioP1;P2;durP2;ratioP2
64894;SDS011;51588;53.702;10.208;2022-09-09T00:00:15;9.30;;;8.30;;
64894;SDS011;51588;53.702;10.208;2022-09-09T00:02:44;9.37;;;8.40;;
64894;SDS011;51588;53.702;10.208;2022-09-09T00:05:19;8.77;;;7.60;;
64894;SDS011;51588;53.702;10.208;2022-09-09T00:07:54;11.10;;;8.60;;
64894;SDS011;51588;53.702;10.208;2022-09-09T00:10:26;9.73;;;8.37;;
64894;SDS011;51588;53.702;10.208;2022-09-09T00:12:57;9.03;;;8.10;;
64894;SDS011;51588;53.702;10.208;2022-09-09T00:15:33;9.93;;;8.77;;
64894;SDS011;51588;53.702;10.208;2022-09-09T00:18:07;10.27;;;9.10;;
64894;SDS011;51588;53.702;10.208;2022-09-09T00:20:43;10.70;;;8.80;;
64894;SDS011;51588;53.702;10.208;2022-09-09T00:23:14;10.47;;;8.53;;
64894;SDS011;51588;53.702;10.208;2022-09-09T00:25:47;11.07;;;8.93;;
64894;SDS011;51588;53.702;10.208;2022-09-09T00:28:20;11.43;;;8.77;;
64894;SDS011;51588;53.702;10.208;2022-09-09T00:30:50;10.70;;;9.60;;
64894;SDS011;51588;53.702;10.208;2022-09-09T00:33:17;10.27;;;9.17;;
64894;SDS011;51588;53.702;10.208;2022-09-09T00:35:50;9.13;;;8.20;;
64894;SDS011;51588;53.702;10.208;2022-09-09T00:38:20;11.40;;;10.20;;
64894;SDS011;51588;53.702;10.208;2022-09-09T00:40:52;11.63;;;9.93;;
64894;SDS011;51588;53.702;10.208;2022-09-09T00:43:26;11.70;;;9.57;;
64894;SDS011;51588;53.702;10.208;2022-09-09T00:49:04;11.10;;;9.90;;
64894;SDS011;51588;53.702;10.208;2022-09-09T00:51:39;11.40;;;9.73;;
64894;SDS011;51588;53.702;10.208;2022-09-09T00:54:15;11.13;;;9.53;;
64894;SDS011;51588;53.702;10.208;2022-09-09T00:56:59;10.50;;;9.40;;
64894;SDS011;51588;53.702;10.208;2022-09-09T00:59:40;12.90;;;9.87;;
64894;SDS011;51588;53.702;10.208;2022-09-09T01:02:14;11.40;;;9.93;;
64894;SDS011;51588;53.702;10.208;2022-09-09T01:04:47;12.83;;;10.43;;
64894;SDS011;51588;53.702;10.208;2022-09-09T01:07:15;11.67;;;9.67;;
64894;SDS011;51588;53.702;10.208;2022-09-09T01:09:46;10.50;;;9.40;;
64894;SDS011;51588;53.702;10.208;2022-09-09T01:12:23;10.60;;;9.50;;
64894;SDS011;51588;53.702;10.208;2022-09-09T01:14:53;11.93;;;10.53;;
64894;SDS011;51588;53.702;10.208;2022-09-09T01:17:28;11.93;;;10.30;;
64894;SDS011;51588;53.702;10.208;2022-09-09T01:20:03;11.90;;;9.63;;
64894;SDS011;51588;53.702;10.208;2022-09-09T01:22:35;11.00;;;9.80;;
64894;SDS011;51588;53.702;10.208;2022-09-09T01:25:13;10.80;;;9.70;;
64894;SDS011;51588;53.702;10.208;2022-09-09T01:27:49;11.43;;;9.97;;
64894;SDS011;51588;53.702;10.208;2022-09-09T01:30:19;10.90;;;9.80;;
64894;SDS011;51588;53.702;10.208;2022-09-09T01:32:48;10.97;;;9.87;;
64894;SDS011;51588;53.702;10.208;2022-09-09T01:35:18;10.23;;;9.13;;
64894;SDS011;51588;53.702;10.208;2022-09-09T01:37:51;10.93;;;9.83;;
64894;SDS011;51588;53.702;10.208;2022-09-09T01:40:17;10.13;;;9.03;;
64894;SDS011;51588;53.702;10.208;2022-09-09T01:42:44;11.03;;;9.83;;
64894;SDS011;51588;53.702;10.208;2022-09-09T01:45:12;11.13;;;9.40;;
64894;SDS011;51588;53.702;10.208;2022-09-09T01:47:39;10.57;;;9.47;;
64894;SDS011;51588;53.702;10.208;2022-09-09T01:50:06;9.97;;;8.97;;
64894;SDS011;51588;53.702;10.208;2022-09-09T01:52:34;11.70;;;9.20;;
64894;SDS011;51588;53.702;10.208;2022-09-09T01:55:02;11.90;;;9.93;;
64894;SDS011;51588;53.702;10.208;2022-09-09T01:57:30;10.30;;;9.30;;
64894;SDS011;51588;53.702;10.208;2022-09-09T02:00:05;9.70;;;8.70;;
64894;SDS011;51588;53.702;10.208;2022-09-09T02:02:36;10.97;;;9.80;;
64894;SDS011;51588;53.702;10.208;2022-09-09T02:05:12;9.97;;;8.97;;
64894;SDS011;51588;53.702;10.208;2022-09-09T02:07:48;9.70;;;8.57;;
64894;SDS011;51588;53.702;10.208;2022-09-09T02:10:16;10.30;;;9.20;;
64894;SDS011;51588;53.702;10.208;2022-09-09T02:12:47;10.47;;;9.37;;
64894;SDS011;51588;53.702;10.208;2022-09-09T02:15:20;10.13;;;9.07;;
64894;SDS011;51588;53.702;10.208;2022-09-09T02:17:51;10.30;;;9.20;;
64894;SDS011;51588;53.702;10.208;2022-09-09T02:20:18;10.13;;;8.90;;
64894;SDS011;51588;53.702;10.208;2022-09-09T02:22:46;10.40;;;9.00;;
64894;SDS011;51588;53.702;10.208;2022-09-09T02:25:18;9.77;;;8.77;;
64894;SDS011;51588;53.702;10.208;2022-09-09T02:27:47;10.07;;;9.07;;
64894;SDS011;51588;53.702;10.208;2022-09-09T02:30:16;10.63;;;9.50;;
64894;SDS011;51588;53.702;10.208;2022-09-09T02:32:44;10.60;;;8.90;;
64894;SDS011;51588;53.702;10.208;2022-09-09T02:35:16;9.67;;;8.67;;
64894;SDS011;51588;53.702;10.208;2022-09-09T02:37:47;10.60;;;8.40;;
64894;SDS011;51588;53.702;10.208;2022-09-09T02:40:16;10.63;;;9.03;;
64894;SDS011;51588;53.702;10.208;2022-09-09T02:42:43;10.30;;;9.00;;
64894;SDS011;51588;53.702;10.208;2022-09-09T02:45:11;9.37;;;8.37;;
64894;SDS011;51588;53.702;10.208;2022-09-09T02:47:41;10.00;;;8.67;;
64894;SDS011;51588;53.702;10.208;2022-09-09T02:50:19;10.03;;;8.40;;
64894;SDS011;51588;53.702;10.208;2022-09-09T02:52:54;9.60;;;8.40;;
64894;SDS011;51588;53.702;10.208;2022-09-09T02:55:33;9.40;;;8.40;;
64894;SDS011;51588;53.702;10.208;2022-09-09T02:58:05;10.60;;;9.10;;
64894;SDS011;51588;53.702;10.208;2022-09-09T03:00:35;10.20;;;9.10;;
64894;SDS011;51588;53.702;10.208;2022-09-09T03:03:02;9.10;;;8.20;;
64894;SDS011;51588;53.702;10.208;2022-09-09T03:05:30;9.53;;;8.47;;
64894;SDS011;51588;53.702;10.208;2022-09-09T03:07:57;10.50;;;9.40;;
64894;SDS011;51588;53.702;10.208;2022-09-09T03:10:24;10.10;;;8.97;;
64894;SDS011;51588;53.702;10.208;2022-09-09T03:12:50;9.20;;;8.30;;
64894;SDS011;51588;53.702;10.208;2022-09-09T03:15:17;9.23;;;8.33;;
64894;SDS011;51588;53.702;10.208;2022-09-09T03:17:43;9.47;;;8.47;;
64894;SDS011;51588;53.702;10.208;2022-09-09T03:20:10;10.23;;;8.63;;
64894;SDS011;51588;53.702;10.208;2022-09-09T03:22:38;9.37;;;8.40;;
64894;SDS011;51588;53.702;10.208;2022-09-09T03:25:05;8.83;;;7.93;;
64894;SDS011;51588;53.702;10.208;2022-09-09T03:27:32;9.57;;;8.60;;
64894;SDS011;51588;53.702;10.208;2022-09-09T03:29:59;8.43;;;7.63;;
64894;SDS011;51588;53.702;10.208;2022-09-09T03:32:28;8.90;;;8.00;;
64894;SDS011;51588;53.702;10.208;2022-09-09T03:34:56;9.30;;;8.40;;
64894;SDS011;51588;53.702;10.208;2022-09-09T03:37:23;9.33;;;8.37;;
64894;SDS011;51588;53.702;10.208;2022-09-09T03:39:50;9.30;;;8.40;;
64894;SDS011;51588;53.702;10.208;2022-09-09T03:42:19;8.87;;;7.97;;
64894;SDS011;51588;53.702;10.208;2022-09-09T03:44:45;9.73;;;8.73;;
64894;SDS011;51588;53.702;10.208;2022-09-09T03:47:15;8.70;;;7.80;;
64894;SDS011;51588;53.702;10.208;2022-09-09T03:49:43;9.67;;;8.67;;
64894;SDS011;51588;53.702;10.208;2022-09-09T03:52:09;8.97;;;8.07;;
64894;SDS011;51588;53.702;10.208;2022-09-09T03:54:36;8.93;;;8.03;;
64894;SDS011;51588;53.702;10.208;2022-09-09T03:57:04;9.03;;;8.13;;
64894;SDS011;51588;53.702;10.208;2022-09-09T03:59:31;9.30;;;8.37;;
64894;SDS011;51588;53.702;10.208;2022-09-09T04:01:57;9.90;;;8.33;;
64894;SDS011;51588;53.702;10.208;2022-09-09T04:04:24;10.27;;;8.73;;
64894;SDS011;51588;53.702;10.208;2022-09-09T04:06:51;8.97;;;8.07;;
64894;SDS011;51588;53.702;10.208;2022-09-09T04:09:17;8.97;;;8.07;;
64894;SDS011;51588;53.702;10.208;2022-09-09T04:11:44;8.70;;;7.80;;
64894;SDS011;51588;53.702;10.208;2022-09-09T04:14:13;8.03;;;7.27;;
64894;SDS011;51588;53.702;10.208;2022-09-09T04:16:39;9.40;;;8.43;;
64894;SDS011;51588;53.702;10.208;2022-09-09T04:19:09;8.83;;;7.57;;
64894;SDS011;51588;53.702;10.208;2022-09-09T04:21:37;10.10;;;8.33;;
64894;SDS011;51588;53.702;10.208;2022-09-09T04:24:04;9.47;;;8.47;;
64894;SDS011;51588;53.702;10.208;2022-09-09T04:26:32;9.37;;;8.47;;
64894;SDS011;51588;53.702;10.208;2022-09-09T04:28:58;8.80;;;7.90;;
64894;SDS011;51588;53.702;10.208;2022-09-09T04:31:26;8.73;;;7.80;;
64894;SDS011;51588;53.702;10.208;2022-09-09T04:33:53;8.97;;;7.90;;
64894;SDS011;51588;53.702;10.208;2022-09-09T04:36:19;8.83;;;7.93;;
64894;SDS011;51588;53.702;10.208;2022-09-09T04:38:46;9.00;;;8.10;;
64894;SDS011;51588;53.702;10.208;2022-09-09T04:41:13;8.77;;;7.87;;
64894;SDS011;51588;53.702;10.208;2022-09-09T04:43:41;8.63;;;7.83;;
64894;SDS011;51588;53.702;10.208;2022-09-09T04:46:08;8.87;;;7.97;;
64894;SDS011;51588;53.702;10.208;2022-09-09T04:48:36;9.20;;;8.30;;
64894;SDS011;51588;53.702;10.208;2022-09-09T04:51:03;9.20;;;8.30;;
64894;SDS011;51588;53.702;10.208;2022-09-09T04:53:31;9.10;;;8.20;;
64894;SDS011;51588;53.702;10.208;2022-09-09T04:56:02;8.30;;;7.50;;
64894;SDS011;51588;53.702;10.208;2022-09-09T04:58:30;9.20;;;8.27;;
64894;SDS011;51588;53.702;10.208;2022-09-09T05:01:04;8.73;;;7.83;;
64894;SDS011;51588;53.702;10.208;2022-09-09T05:03:32;8.33;;;7.50;;
64894;SDS011;51588;53.702;10.208;2022-09-09T05:06:04;8.13;;;7.33;;
64894;SDS011;51588;53.702;10.208;2022-09-09T05:08:32;8.60;;;7.33;;
64894;SDS011;51588;53.702;10.208;2022-09-09T05:10:58;8.77;;;7.87;;
64894;SDS011;51588;53.702;10.208;2022-09-09T05:13:25;7.83;;;7.03;;
64894;SDS011;51588;53.702;10.208;2022-09-09T05:15:52;8.20;;;7.40;;
64894;SDS011;51588;53.702;10.208;2022-09-09T05:18:19;7.27;;;6.50;;
64894;SDS011;51588;53.702;10.208;2022-09-09T05:20:47;7.60;;;6.80;;
64894;SDS011;51588;53.702;10.208;2022-09-09T05:23:15;8.13;;;7.33;;
64894;SDS011;51588;53.702;10.208;2022-09-09T05:25:42;8.13;;;7.33;;
64894;SDS011;51588;53.702;10.208;2022-09-09T05:28:08;9.17;;;6.83;;
64894;SDS011;51588;53.702;10.208;2022-09-09T05:30:36;9.90;;;6.90;;
64894;SDS011;51588;53.702;10.208;2022-09-09T05:33:03;16.80;;;7.27;;
64894;SDS011;51588;53.702;10.208;2022-09-09T05:35:31;8.50;;;7.17;;
64894;SDS011;51588;53.702;10.208;2022-09-09T05:37:59;10.23;;;7.10;;
64894;SDS011;51588;53.702;10.208;2022-09-09T05:40:28;7.80;;;7.00;;
64894;SDS011;51588;53.702;10.208;2022-09-09T05:42:55;7.43;;;6.67;;
64894;SDS011;51588;53.702;10.208;2022-09-09T05:45:25;8.00;;;6.80;;
64894;SDS011;51588;53.702;10.208;2022-09-09T05:47:52;7.47;;;6.70;;
64894;SDS011;51588;53.702;10.208;2022-09-09T05:50:19;8.50;;;6.97;;
64894;SDS011;51588;53.702;10.208;2022-09-09T05:52:45;11.00;;;7.70;;
64894;SDS011;51588;53.702;10.208;2022-09-09T05:55:13;12.20;;;7.73;;
64894;SDS011;51588;53.702;10.208;2022-09-09T05:57:41;16.33;;;7.93;;
64894;SDS011;51588;53.702;10.208;2022-09-09T06:00:08;15.03;;;7.50;;
64894;SDS011;51588;53.702;10.208;2022-09-09T06:02:37;15.50;;;7.10;;
64894;SDS011;51588;53.702;10.208;2022-09-09T06:05:04;7.93;;;6.33;;
64894;SDS011;51588;53.702;10.208;2022-09-09T06:07:31;9.33;;;7.00;;
64894;SDS011;51588;53.702;10.208;2022-09-09T06:09:57;12.47;;;6.47;;
64894;SDS011;51588;53.702;10.208;2022-09-09T06:12:25;11.43;;;6.60;;
64894;SDS011;51588;53.702;10.208;2022-09-09T06:14:53;7.13;;;6.30;;
64894;SDS011;51588;53.702;10.208;2022-09-09T06:17:19;9.00;;;6.40;;
64894;SDS011;51588;53.702;10.208;2022-09-09T06:19:45;9.13;;;6.73;;
64894;SDS011;51588;53.702;10.208;2022-09-09T06:22:12;8.30;;;5.40;;
64894;SDS011;51588;53.702;10.208;2022-09-09T06:24:38;11.87;;;6.70;;
64894;SDS011;51588;53.702;10.208;2022-09-09T06:27:05;7.40;;;6.03;;
64894;SDS011;51588;53.702;10.208;2022-09-09T06:29:32;11.23;;;6.00;;
64894;SDS011;51588;53.702;10.208;2022-09-09T06:32:00;9.10;;;6.57;;
64894;SDS011;51588;53.702;10.208;2022-09-09T06:34:27;13.37;;;6.10;;
64894;SDS011;51588;53.702;10.208;2022-09-09T06:36:54;11.33;;;6.33;;
64894;SDS011;51588;53.702;10.208;2022-09-09T06:39:22;9.40;;;6.00;;
64894;SDS011;51588;53.702;10.208;2022-09-09T06:41:49;11.50;;;5.10;;
64894;SDS011;51588;53.702;10.208;2022-09-09T06:44:18;12.27;;;5.77;;
64894;SDS011;51588;53.702;10.208;2022-09-09T06:46:45;16.13;;;5.03;;
64894;SDS011;51588;53.702;10.208;2022-09-09T06:49:14;18.30;;;5.87;;
64894;SDS011;51588;53.702;10.208;2022-09-09T06:51:40;11.00;;;5.17;;
64894;SDS011;51588;53.702;10.208;2022-09-09T06:54:08;11.83;;;5.10;;
64894;SDS011;51588;53.702;10.208;2022-09-09T06:56:35;12.53;;;5.03;;
64894;SDS011;51588;53.702;10.208;2022-09-09T06:59:05;13.70;;;5.47;;
64894;SDS011;51588;53.702;10.208;2022-09-09T07:01:34;11.00;;;5.80;;
64894;SDS011;51588;53.702;10.208;2022-09-09T07:04:03;8.00;;;4.40;;
64894;SDS011;51588;53.702;10.208;2022-09-09T07:06:35;7.40;;;4.70;;
64894;SDS011;51588;53.702;10.208;2022-09-09T07:09:03;7.80;;;4.33;;
64894;SDS011;51588;53.702;10.208;2022-09-09T07:11:32;7.63;;;4.50;;
64894;SDS011;51588;53.702;10.208;2022-09-09T07:14:00;7.20;;;3.83;;
64894;SDS011;51588;53.702;10.208;2022-09-09T07:16:27;8.57;;;4.40;;
64894;SDS011;51588;53.702;10.208;2022-09-09T07:18:54;7.77;;;4.70;;
64894;SDS011;51588;53.702;10.208;2022-09-09T07:21:23;6.77;;;4.53;;
64894;SDS011;51588;53.702;10.208;2022-09-09T07:23:52;8.07;;;4.30;;
64894;SDS011;51588;53.702;10.208;2022-09-09T07:26:21;5.60;;;4.13;;
64894;SDS011;51588;53.702;10.208;2022-09-09T07:28:48;9.60;;;4.50;;
64894;SDS011;51588;53.702;10.208;2022-09-09T07:31:16;6.77;;;4.30;;
64894;SDS011;51588;53.702;10.208;2022-09-09T07:33:44;6.20;;;4.47;;
64894;SDS011;51588;53.702;10.208;2022-09-09T07:36:12;9.33;;;4.87;;
64894;SDS011;51588;53.702;10.208;2022-09-09T07:38:40;6.10;;;3.70;;
64894;SDS011;51588;53.702;10.208;2022-09-09T07:41:10;7.47;;;4.27;;
64894;SDS011;51588;53.702;10.208;2022-09-09T07:43:38;6.13;;;4.07;;
64894;SDS011;51588;53.702;10.208;2022-09-09T07:46:05;11.43;;;3.97;;
64894;SDS011;51588;53.702;10.208;2022-09-09T07:48:32;5.03;;;4.13;;
64894;SDS011;51588;53.702;10.208;2022-09-09T07:51:03;4.40;;;3.93;;
64894;SDS011;51588;53.702;10.208;2022-09-09T07:53:32;5.20;;;4.03;;
64894;SDS011;51588;53.702;10.208;2022-09-09T07:56:01;4.97;;;3.70;;
64894;SDS011;51588;53.702;10.208;2022-09-09T07:58:30;5.80;;;3.83;;
64894;SDS011;51588;53.702;10.208;2022-09-09T08:00:57;10.87;;;4.47;;
64894;SDS011;51588;53.702;10.208;2022-09-09T08:03:23;6.50;;;4.47;;
64894;SDS011;51588;53.702;10.208;2022-09-09T08:05:50;6.60;;;3.60;;
64894;SDS011;51588;53.702;10.208;2022-09-09T08:08:16;7.03;;;3.70;;
64894;SDS011;51588;53.702;10.208;2022-09-09T08:10:43;6.50;;;4.00;;
64894;SDS011;51588;53.702;10.208;2022-09-09T08:13:09;4.37;;;3.97;;
64894;SDS011;51588;53.702;10.208;2022-09-09T08:15:37;4.93;;;3.37;;
64894;SDS011;51588;53.702;10.208;2022-09-09T08:18:04;7.03;;;3.80;;
64894;SDS011;51588;53.702;10.208;2022-09-09T08:20:31;6.13;;;3.90;;
64894;SDS011;51588;53.702;10.208;2022-09-09T08:22:57;6.03;;;3.57;;
64894;SDS011;51588;53.702;10.208;2022-09-09T08:25:24;5.30;;;4.20;;
64894;SDS011;51588;53.702;10.208;2022-09-09T08:27:52;6.27;;;3.80;;
64894;SDS011;51588;53.702;10.208;2022-09-09T08:30:19;5.70;;;3.40;;
64894;SDS011;51588;53.702;10.208;2022-09-09T08:32:47;4.60;;;3.10;;
64894;SDS011;51588;53.702;10.208;2022-09-09T08:35:16;7.23;;;3.63;;
64894;SDS011;51588;53.702;10.208;2022-09-09T08:37:42;4.80;;;3.90;;
64894;SDS011;51588;53.702;10.208;2022-09-09T08:40:10;10.90;;;4.10;;
64894;SDS011;51588;53.702;10.208;2022-09-09T08:42:47;11.70;;;3.97;;
64894;SDS011;51588;53.702;10.208;2022-09-09T08:45:20;14.47;;;3.57;;
64894;SDS011;51588;53.702;10.208;2022-09-09T08:48:01;6.07;;;3.67;;
64894;SDS011;51588;53.702;10.208;2022-09-09T08:50:36;6.83;;;3.60;;
64894;SDS011;51588;53.702;10.208;2022-09-09T08:53:09;13.40;;;3.70;;
64894;SDS011;51588;53.702;10.208;2022-09-09T08:55:43;9.03;;;3.53;;
64894;SDS011;51588;53.702;10.208;2022-09-09T08:58:14;6.53;;;3.30;;
64894;SDS011;51588;53.702;10.208;2022-09-09T09:00:46;5.27;;;3.30;;
64894;SDS011;51588;53.702;10.208;2022-09-09T09:03:27;5.93;;;3.40;;
64894;SDS011;51588;53.702;10.208;2022-09-09T09:06:03;5.63;;;3.30;;
64894;SDS011;51588;53.702;10.208;2022-09-09T09:08:35;7.03;;;3.10;;
64894;SDS011;51588;53.702;10.208;2022-09-09T09:11:08;6.30;;;3.27;;
64894;SDS011;51588;53.702;10.208;2022-09-09T09:13:35;6.10;;;3.30;;
64894;SDS011;51588;53.702;10.208;2022-09-09T09:16:10;4.23;;;3.30;;
64894;SDS011;51588;53.702;10.208;2022-09-09T09:18:45;7.60;;;3.07;;
64894;SDS011;51588;53.702;10.208;2022-09-09T09:21:12;7.13;;;3.50;;
64894;SDS011;51588;53.702;10.208;2022-09-09T09:23:45;6.50;;;3.17;;
64894;SDS011;51588;53.702;10.208;2022-09-09T09:26:20;5.80;;;3.00;;
64894;SDS011;51588;53.702;10.208;2022-09-09T09:28:48;5.80;;;3.23;;
64894;SDS011;51588;53.702;10.208;2022-09-09T09:31:16;6.20;;;2.97;;
64894;SDS011;51588;53.702;10.208;2022-09-09T09:33:48;4.03;;;3.17;;
64894;SDS011;51588;53.702;10.208;2022-09-09T09:36:18;3.37;;;3.07;;
64894;SDS011;51588;53.702;10.208;2022-09-09T09:38:52;7.43;;;3.30;;
64894;SDS011;51588;53.702;10.208;2022-09-09T09:41:31;7.03;;;2.90;;
64894;SDS011;51588;53.702;10.208;2022-09-09T09:43:59;7.47;;;3.10;;
64894;SDS011;51588;53.702;10.208;2022-09-09T09:46:27;6.20;;;3.30;;
64894;SDS011;51588;53.702;10.208;2022-09-09T09:48:59;4.47;;;2.90;;
64894;SDS011;51588;53.702;10.208;2022-09-09T09:51:26;6.87;;;2.90;;
64894;SDS011;51588;53.702;10.208;2022-09-09T09:54:01;5.20;;;3.00;;
64894;SDS011;51588;53.702;10.208;2022-09-09T09:56:35;4.93;;;3.40;;
64894;SDS011;51588;53.702;10.208;2022-09-09T09:59:02;4.80;;;2.97;;
64894;SDS011;51588;53.702;10.208;2022-09-09T10:01:29;3.80;;;2.50;;
64894;SDS011;51588;53.702;10.208;2022-09-09T10:04:00;4.10;;;2.70;;
64894;SDS011;51588;53.702;10.208;2022-09-09T10:06:31;3.30;;;2.40;;
64894;SDS011;51588;53.702;10.208;2022-09-09T10:08:59;3.20;;;2.90;;
64894;SDS011;51588;53.702;10.208;2022-09-09T10:14:15;4.40;;;2.60;;
64894;SDS011;51588;53.702;10.208;2022-09-09T10:16:52;2.40;;;2.00;;
64894;SDS011;51588;53.702;10.208;2022-09-09T10:19:33;8.90;;;2.47;;
64894;SDS011;51588;53.702;10.208;2022-09-09T10:22:13;3.47;;;2.73;;
64894;SDS011;51588;53.702;10.208;2022-09-09T10:24:56;3.37;;;2.30;;
64894;SDS011;51588;53.702;10.208;2022-09-09T10:27:32;2.90;;;2.60;;
64894;SDS011;51588;53.702;10.208;2022-09-09T10:30:10;2.70;;;2.33;;
64894;SDS011;51588;53.702;10.208;2022-09-09T10:32:45;6.53;;;2.37;;
64894;SDS011;51588;53.702;10.208;2022-09-09T10:38:17;3.40;;;2.20;;
64894;SDS011;51588;53.702;10.208;2022-09-09T10:41:00;2.97;;;2.20;;
64894;SDS011;51588;53.702;10.208;2022-09-09T10:46:55;4.23;;;2.33;;
64894;SDS011;51588;53.702;10.208;2022-09-09T10:49:40;3.07;;;2.40;;
64894;SDS011;51588;53.702;10.208;2022-09-09T10:52:26;3.70;;;2.33;;
64894;SDS011;51588;53.702;10.208;2022-09-09T10:54:59;3.93;;;2.10;;
64894;SDS011;51588;53.702;10.208;2022-09-09T10:57:33;4.80;;;2.10;;
64894;SDS011;51588;53.702;10.208;2022-09-09T11:00:06;2.07;;;1.97;;
64894;SDS011;51588;53.702;10.208;2022-09-09T11:02:40;2.80;;;2.10;;
64894;SDS011;51588;53.702;10.208;2022-09-09T11:05:08;3.70;;;1.90;;
64894;SDS011;51588;53.702;10.208;2022-09-09T11:07:44;2.30;;;1.90;;
64894;SDS011;51588;53.702;10.208;2022-09-09T11:10:17;2.00;;;1.80;;
64894;SDS011;51588;53.702;10.208;2022-09-09T11:12:50;4.00;;;2.40;;
64894;SDS011;51588;53.702;10.208;2022-09-09T11:15:20;7.33;;;2.17;;
64894;SDS011;51588;53.702;10.208;2022-09-09T11:17:53;1.73;;;1.60;;
64894;SDS011;51588;53.702;10.208;2022-09-09T11:20:22;3.83;;;2.00;;
64894;SDS011;51588;53.702;10.208;2022-09-09T11:22:52;3.27;;;2.03;;
64894;SDS011;51588;53.702;10.208;2022-09-09T11:25:26;2.40;;;2.00;;
64894;SDS011;51588;53.702;10.208;2022-09-09T11:28:00;3.90;;;1.80;;
64894;SDS011;51588;53.702;10.208;2022-09-09T11:30:39;2.50;;;2.00;;
64894;SDS011;51588;53.702;10.208;2022-09-09T11:33:41;2.10;;;1.90;;
64894;SDS011;51588;53.702;10.208;2022-09-09T11:39:38;7.73;;;2.10;;
64894;SDS011;51588;53.702;10.208;2022-09-09T11:42:19;6.90;;;2.00;;
64894;SDS011;51588;53.702;10.208;2022-09-09T11:44:46;8.23;;;2.20;;
64894;SDS011;51588;53.702;10.208;2022-09-09T11:47:19;4.33;;;1.93;;
64894;SDS011;51588;53.702;10.208;2022-09-09T11:49:49;3.77;;;2.00;;
64894;SDS011;51588;53.702;10.208;2022-09-09T11:52:20;2.17;;;1.80;;
64894;SDS011;51588;53.702;10.208;2022-09-09T11:54:49;2.33;;;1.70;;
64894;SDS011;51588;53.702;10.208;2022-09-09T11:57:21;8.90;;;2.50;;
64894;SDS011;51588;53.702;10.208;2022-09-09T11:59:51;2.77;;;2.00;;
64894;SDS011;51588;53.702;10.208;2022-09-09T12:02:22;5.33;;;1.87;;
64894;SDS011;51588;53.702;10.208;2022-09-09T12:04:55;2.67;;;2.10;;
64894;SDS011;51588;53.702;10.208;2022-09-09T12:07:28;3.00;;;1.90;;
64894;SDS011;51588;53.702;10.208;2022-09-09T12:10:00;2.80;;;1.90;;
64894;SDS011;51588;53.702;10.208;2022-09-09T12:12:32;8.73;;;2.10;;
64894;SDS011;51588;53.702;10.208;2022-09-09T12:17:46;3.73;;;2.17;;
64894;SDS011;51588;53.702;10.208;2022-09-09T12:20:15;4.27;;;1.73;;
64894;SDS011;51588;53.702;10.208;2022-09-09T12:22:46;2.87;;;1.60;;
64894;SDS011;51588;53.702;10.208;2022-09-09T12:25:29;3.57;;;1.80;;
64894;SDS011;51588;53.702;10.208;2022-09-09T12:28:03;5.10;;;2.23;;
64894;SDS011;51588;53.702;10.208;2022-09-09T12:30:37;2.13;;;1.80;;
64894;SDS011;51588;53.702;10.208;2022-09-09T12:33:12;7.27;;;2.43;;
64894;SDS011;51588;53.702;10.208;2022-09-09T12:35:43;5.00;;;1.90;;
64894;SDS011;51588;53.702;10.208;2022-09-09T12:38:15;8.23;;;2.20;;
64894;SDS011;51588;53.702;10.208;2022-09-09T12:40:55;4.33;;;1.80;;
64894;SDS011;51588;53.702;10.208;2022-09-09T12:43:23;8.13;;;1.97;;
64894;SDS011;51588;53.702;10.208;2022-09-09T12:45:51;2.90;;;1.80;;
64894;SDS011;51588;53.702;10.208;2022-09-09T12:48:24;6.40;;;1.87;;
64894;SDS011;51588;53.702;10.208;2022-09-09T12:50:56;4.30;;;1.80;;
64894;SDS011;51588;53.702;10.208;2022-09-09T12:53:24;2.40;;;1.80;;
64894;SDS011;51588;53.702;10.208;2022-09-09T12:55:56;6.20;;;1.70;;
64894;SDS011;51588;53.702;10.208;2022-09-09T12:58:24;2.87;;;1.60;;
64894;SDS011;51588;53.702;10.208;2022-09-09T13:00:53;3.90;;;1.60;;
64894;SDS011;51588;53.702;10.208;2022-09-09T13:03:22;1.97;;;1.57;;
64894;SDS011;51588;53.702;10.208;2022-09-09T13:05:50;3.53;;;1.67;;
64894;SDS011;51588;53.702;10.208;2022-09-09T13:08:17;2.50;;;1.60;;
64894;SDS011;51588;53.702;10.208;2022-09-09T13:10:46;3.57;;;2.00;;
64894;SDS011;51588;53.702;10.208;2022-09-09T13:13:21;2.03;;;1.83;;
64894;SDS011;51588;53.702;10.208;2022-09-09T13:15:49;3.50;;;1.90;;
64894;SDS011;51588;53.702;10.208;2022-09-09T13:18:19;1.70;;;1.50;;
64894;SDS011;51588;53.702;10.208;2022-09-09T13:20:49;1.80;;;1.70;;
64894;SDS011;51588;53.702;10.208;2022-09-09T13:23:16;3.53;;;1.70;;
64894;SDS011;51588;53.702;10.208;2022-09-09T13:25:52;2.97;;;1.70;;
64894;SDS011;51588;53.702;10.208;2022-09-09T13:28:22;2.20;;;2.00;;
64894;SDS011;51588;53.702;10.208;2022-09-09T13:30:57;1.93;;;1.73;;
64894;SDS011;51588;53.702;10.208;2022-09-09T13:33:30;2.17;;;1.97;;
64894;SDS011;51588;53.702;10.208;2022-09-09T13:35:59;1.93;;;1.73;;
64894;SDS011;51588;53.702;10.208;2022-09-09T13:38:29;3.27;;;2.00;;
64894;SDS011;51588;53.702;10.208;2022-09-09T13:40:58;3.07;;;1.90;;
64894;SDS011;51588;53.702;10.208;2022-09-09T13:43:29;2.20;;;1.67;;
64894;SDS011;51588;53.702;10.208;2022-09-09T13:46:00;5.57;;;1.70;;
64894;SDS011;51588;53.702;10.208;2022-09-09T13:48:28;2.30;;;2.10;;
64894;SDS011;51588;53.702;10.208;2022-09-09T13:50:57;1.80;;;1.53;;
64894;SDS011;51588;53.702;10.208;2022-09-09T13:53:29;2.20;;;2.00;;
64894;SDS011;51588;53.702;10.208;2022-09-09T13:55:56;2.40;;;1.93;;
64894;SDS011;51588;53.702;10.208;2022-09-09T13:58:23;4.80;;;1.90;;
64894;SDS011;51588;53.702;10.208;2022-09-09T14:00:52;12.40;;;2.17;;
64894;SDS011;51588;53.702;10.208;2022-09-09T14:03:19;3.07;;;1.70;;
64894;SDS011;51588;53.702;10.208;2022-09-09T14:05:46;2.53;;;1.80;;
64894;SDS011;51588;53.702;10.208;2022-09-09T14:08:21;2.57;;;2.10;;
64894;SDS011;51588;53.702;10.208;2022-09-09T14:10:50;3.57;;;1.87;;
64894;SDS011;51588;53.702;10.208;2022-09-09T14:13:17;6.57;;;1.70;;
64894;SDS011;51588;53.702;10.208;2022-09-09T14:15:47;5.27;;;2.10;;
64894;SDS011;51588;53.702;10.208;2022-09-09T14:18:15;2.50;;;1.93;;
64894;SDS011;51588;53.702;10.208;2022-09-09T14:20:42;3.47;;;2.00;;
64894;SDS011;51588;53.702;10.208;2022-09-09T14:23:10;2.37;;;1.70;;
64894;SDS011;51588;53.702;10.208;2022-09-09T14:25:39;2.90;;;1.87;;
64894;SDS011;51588;53.702;10.208;2022-09-09T14:28:08;4.67;;;2.23;;
64894;SDS011;51588;53.702;10.208;2022-09-09T14:30:36;9.30;;;2.50;;
64894;SDS011;51588;53.702;10.208;2022-09-09T14:33:03;5.87;;;2.40;;
64894;SDS011;51588;53.702;10.208;2022-09-09T14:35:31;6.70;;;2.30;;
64894;SDS011;51588;53.702;10.208;2022-09-09T14:37:59;12.87;;;2.90;;
64894;SDS011;51588;53.702;10.208;2022-09-09T14:40:26;4.30;;;2.33;;
64894;SDS011;51588;53.702;10.208;2022-09-09T14:42:53;8.80;;;2.70;;
64894;SDS011;51588;53.702;10.208;2022-09-09T14:45:21;9.43;;;3.03;;
64894;SDS011;51588;53.702;10.208;2022-09-09T14:47:50;7.03;;;2.50;;
64894;SDS011;51588;53.702;10.208;2022-09-09T14:50:17;6.30;;;2.70;;
64894;SDS011;51588;53.702;10.208;2022-09-09T14:52:45;5.03;;;2.30;;
64894;SDS011;51588;53.702;10.208;2022-09-09T14:55:11;5.30;;;2.23;;
64894;SDS011;51588;53.702;10.208;2022-09-09T14:57:38;6.40;;;2.80;;
64894;SDS011;51588;53.702;10.208;2022-09-09T15:00:06;5.13;;;2.70;;
64894;SDS011;51588;53.702;10.208;2022-09-09T15:02:34;4.90;;;2.50;;
64894;SDS011;51588;53.702;10.208;2022-09-09T15:05:01;6.43;;;2.27;;